createdAt,value
2018-07-03T00:01:33.269Z,17.45
2018-07-03T00:03:45.966Z,17.45
2018-07-03T00:05:58.317Z,17.42
2018-07-03T00:08:10.664Z,17.36
2018-07-03T00:10:23.066Z,17.33
2018-07-03T00:12:35.454Z,17.33
2018-07-03T00:14:47.799Z,17.37
2018-07-03T00:17:05.794Z,17.38
2018-07-03T00:19:18.144Z,17.34
2018-07-03T00:21:30.498Z,17.34
2018-07-03T00:23:42.989Z,17.40
2018-07-03T00:25:55.298Z,17.44
2018-07-03T00:28:07.803Z,17.51
2018-07-03T00:30:20.149Z,17.58
2018-07-03T00:32:32.523Z,17.57
2018-07-03T00:34:44.949Z,17.50
2018-07-03T00:36:57.285Z,17.47
2018-07-03T00:39:09.736Z,17.46
2018-07-03T00:41:22.146Z,17.45
2018-07-03T00:43:34.589Z,17.45
2018-07-03T00:45:47.022Z,17.46
2018-07-03T00:47:59.454Z,17.48
2018-07-03T00:50:11.861Z,17.51
2018-07-03T00:52:24.242Z,17.46
2018-07-03T00:54:36.745Z,17.38
2018-07-03T00:56:49.069Z,17.35
2018-07-03T00:59:01.641Z,17.32
2018-07-03T01:01:14.129Z,17.33
2018-07-03T01:03:26.534Z,17.36
2018-07-03T01:05:38.990Z,17.42
2018-07-03T01:07:51.446Z,17.53
2018-07-03T01:10:04.290Z,17.63
2018-07-03T01:12:16.605Z,17.68
2018-07-03T01:14:28.970Z,17.74
2018-07-03T01:16:41.387Z,17.76
2018-07-03T01:18:53.741Z,17.78
2018-07-03T01:21:06.115Z,17.75
2018-07-03T01:23:18.547Z,17.68
2018-07-03T01:25:30.909Z,17.64
2018-07-03T01:27:43.233Z,17.60
2018-07-03T01:29:55.934Z,17.59
2018-07-03T01:32:08.272Z,17.57
2018-07-03T01:34:20.597Z,17.55
2018-07-03T01:36:32.956Z,17.47
2018-07-03T01:38:45.370Z,17.45
2018-07-03T01:40:58.148Z,17.45
2018-07-03T01:43:10.468Z,17.45
2018-07-03T01:45:22.820Z,17.39
2018-07-03T01:47:35.173Z,17.29
2018-07-03T01:49:47.597Z,17.26
2018-07-03T01:51:59.989Z,17.32
2018-07-03T01:54:12.929Z,17.43
2018-07-03T01:56:25.548Z,17.51
2018-07-03T01:58:37.947Z,17.52
2018-07-03T02:00:50.429Z,17.45
2018-07-03T02:03:02.917Z,17.38
2018-07-03T02:05:15.297Z,17.32
2018-07-03T02:07:27.674Z,17.28
2018-07-03T02:09:40.053Z,17.21
2018-07-03T02:11:52.373Z,17.16
2018-07-03T02:14:05.249Z,17.11
2018-07-03T02:16:17.589Z,17.11
2018-07-03T02:18:30.010Z,17.18
2018-07-03T02:20:42.301Z,17.24
2018-07-03T02:22:54.644Z,17.11
2018-07-03T02:25:07.161Z,16.90
2018-07-03T02:27:19.681Z,16.79
2018-07-03T02:29:32.265Z,16.70
2018-07-03T02:31:44.587Z,16.60
2018-07-03T02:33:56.990Z,16.58
2018-07-03T02:36:09.338Z,16.51
2018-07-03T02:38:21.735Z,16.41
2018-07-03T02:40:34.212Z,16.40
2018-07-03T02:42:46.662Z,16.40
2018-07-03T02:44:59.006Z,16.35
2018-07-03T02:47:11.356Z,16.39
2018-07-03T02:49:23.999Z,16.42
2018-07-03T02:51:36.326Z,16.39
2018-07-03T02:53:48.646Z,16.34
2018-07-03T02:56:01.093Z,16.33
2018-07-03T02:58:13.501Z,16.25
2018-07-03T03:00:26.113Z,16.14
2018-07-03T03:02:38.486Z,16.09
2018-07-03T03:04:50.910Z,16.06
2018-07-03T03:07:03.432Z,15.95
2018-07-03T03:09:15.761Z,15.85
2018-07-03T03:11:28.118Z,15.70
2018-07-03T03:13:40.482Z,15.61
2018-07-03T03:15:52.910Z,15.52
2018-07-03T03:18:05.374Z,15.54
2018-07-03T03:20:17.690Z,15.51
2018-07-03T03:22:30.062Z,15.57
2018-07-03T03:24:42.351Z,15.52
2018-07-03T03:26:54.670Z,15.45
2018-07-03T03:29:07.034Z,15.50
2018-07-03T03:31:19.518Z,15.53
2018-07-03T03:33:31.980Z,15.50
2018-07-03T03:35:44.298Z,15.50
2018-07-03T03:37:56.651Z,15.48
2018-07-03T03:40:09.130Z,15.45
2018-07-03T03:42:21.490Z,15.48
2018-07-03T03:44:33.882Z,15.53
2018-07-03T03:46:46.362Z,15.57
2018-07-03T03:48:58.728Z,15.65
2018-07-03T03:51:11.187Z,15.70
2018-07-03T03:53:23.627Z,15.68
2018-07-03T03:55:35.958Z,15.66
2018-07-03T03:57:48.318Z,15.65
2018-07-03T04:00:00.689Z,15.60
2018-07-03T04:02:13.089Z,15.60
2018-07-03T04:04:25.412Z,15.61
2018-07-03T04:06:37.739Z,15.62
2018-07-03T04:08:50.121Z,15.66
2018-07-03T04:11:02.534Z,15.72
2018-07-03T04:13:14.852Z,15.78
2018-07-03T04:15:27.326Z,15.84
2018-07-03T04:17:39.775Z,15.88
2018-07-03T04:19:52.146Z,15.92
2018-07-03T04:22:04.530Z,15.96
2018-07-03T04:24:16.919Z,16.04
2018-07-03T04:26:29.314Z,16.14
2018-07-03T04:28:41.698Z,16.22
2018-07-03T04:30:54.078Z,16.32
2018-07-03T04:33:06.399Z,16.46
2018-07-03T04:35:18.790Z,16.60
2018-07-03T04:37:31.257Z,16.73
2018-07-03T04:39:44.414Z,16.81
2018-07-03T04:41:56.809Z,16.92
2018-07-03T04:44:09.209Z,17.06
2018-07-03T04:46:21.626Z,17.23
2018-07-03T04:48:33.972Z,17.37
2018-07-03T04:50:46.548Z,17.53
2018-07-03T04:52:58.927Z,17.65
2018-07-03T04:55:11.877Z,17.77
2018-07-03T04:57:24.478Z,17.91
2018-07-03T04:59:36.814Z,18.05
2018-07-03T05:01:49.218Z,18.21
2018-07-03T05:04:03.573Z,18.32
2018-07-03T05:06:15.970Z,18.44
2018-07-03T05:08:28.408Z,18.57
2018-07-03T05:10:40.819Z,18.72
2018-07-03T05:12:53.137Z,18.77
2018-07-03T05:15:05.620Z,18.87
2018-07-03T05:17:18.177Z,18.95
2018-07-03T05:19:30.805Z,19.04
2018-07-03T05:21:43.099Z,19.13
2018-07-03T05:23:55.520Z,19.27
2018-07-03T05:26:07.938Z,19.39
2018-07-03T05:28:20.326Z,19.49
2018-07-03T05:30:32.704Z,19.63
2018-07-03T05:32:45.054Z,19.68
2018-07-03T05:34:57.546Z,19.76
2018-07-03T05:37:10.015Z,19.90
2018-07-03T05:39:22.530Z,20.01
2018-07-03T05:41:35.005Z,20.11
2018-07-03T05:43:53.102Z,20.24
2018-07-03T05:46:05.558Z,20.37
2018-07-03T05:48:17.970Z,20.50
2018-07-03T05:50:30.315Z,20.61
2018-07-03T05:52:42.786Z,20.65
2018-07-03T05:54:55.137Z,20.70
2018-07-03T05:57:07.506Z,20.78
2018-07-03T05:59:20.528Z,20.84
2018-07-03T06:01:32.901Z,21.00
2018-07-03T06:03:45.448Z,21.09
2018-07-03T06:05:57.797Z,21.16
2018-07-03T06:08:10.136Z,21.25
2018-07-03T06:10:22.491Z,21.50
2018-07-03T06:12:34.887Z,21.70
2018-07-03T06:14:47.297Z,21.75
2018-07-03T06:16:59.709Z,21.85
2018-07-03T06:19:12.164Z,21.94
2018-07-03T06:21:24.639Z,21.98
2018-07-03T06:23:37.058Z,22.08
2018-07-03T06:25:49.531Z,22.19
2018-07-03T06:28:01.907Z,22.38
2018-07-03T06:30:14.291Z,22.53
2018-07-03T06:32:26.843Z,22.61
2018-07-03T06:34:39.195Z,22.75
2018-07-03T06:36:51.474Z,22.87
2018-07-03T06:39:07.346Z,23.00
2018-07-03T06:41:19.738Z,23.15
2018-07-03T06:43:32.135Z,23.37
2018-07-03T06:45:44.698Z,23.52
2018-07-03T06:47:57.435Z,23.72
2018-07-03T06:50:09.814Z,23.90
2018-07-03T06:52:22.251Z,24.05
2018-07-03T06:54:34.594Z,24.25
2018-07-03T06:56:46.971Z,24.44
2018-07-03T06:58:59.318Z,24.60
2018-07-03T07:01:11.790Z,24.83
2018-07-03T07:03:24.162Z,25.15
2018-07-03T07:05:36.563Z,25.28
2018-07-03T07:07:48.918Z,25.52
2018-07-03T07:10:01.365Z,25.89
2018-07-03T07:12:13.774Z,26.12
2018-07-03T07:14:26.209Z,26.36
2018-07-03T07:16:38.775Z,26.58
2018-07-03T07:18:51.143Z,26.55
2018-07-03T07:21:03.498Z,26.64
2018-07-03T07:23:15.840Z,26.80
2018-07-03T07:25:28.207Z,26.86
2018-07-03T07:27:40.570Z,26.98
2018-07-03T07:29:52.887Z,27.22
2018-07-03T07:32:05.521Z,27.35
2018-07-03T07:34:17.890Z,27.47
2018-07-03T07:36:30.290Z,27.54
2018-07-03T07:38:42.657Z,27.67
2018-07-03T07:40:55.661Z,27.90
2018-07-03T07:43:08.011Z,28.12
2018-07-03T07:45:20.388Z,28.38
2018-07-03T07:47:34.686Z,28.50
2018-07-03T07:49:47.130Z,28.65
2018-07-03T07:51:59.526Z,28.69
2018-07-03T07:54:11.946Z,28.78
2018-07-03T07:56:24.332Z,28.77
2018-07-03T07:58:36.917Z,28.86
2018-07-03T08:00:49.327Z,29.04
2018-07-03T08:03:01.798Z,29.18
2018-07-03T08:05:14.158Z,29.38
2018-07-03T08:07:37.287Z,29.50
2018-07-03T08:09:49.714Z,29.52
2018-07-03T08:12:04.040Z,29.45
2018-07-03T08:14:16.416Z,29.51
2018-07-03T08:16:31.758Z,29.58
2018-07-03T08:18:44.130Z,29.59
2018-07-03T08:20:56.521Z,29.70
2018-07-03T08:23:09.627Z,29.68
2018-07-03T08:25:23.934Z,29.79
2018-07-03T08:27:36.465Z,29.91
2018-07-03T08:29:48.915Z,29.97
2018-07-03T08:32:01.306Z,29.90
2018-07-03T08:34:13.641Z,30.14
2018-07-03T08:36:26.107Z,30.39
2018-07-03T08:38:38.629Z,30.63
2018-07-03T08:40:51.103Z,30.61
2018-07-03T08:43:03.605Z,30.61
2018-07-03T08:45:16.772Z,30.80
2018-07-03T08:47:29.118Z,30.96
2018-07-03T08:49:41.498Z,30.97
2018-07-03T08:51:53.929Z,30.97
2018-07-03T08:54:06.418Z,30.85
2018-07-03T08:56:18.773Z,30.96
2018-07-03T08:58:36.982Z,30.90
2018-07-03T09:00:49.447Z,31.00
2018-07-03T09:03:01.867Z,31.22
2018-07-03T09:05:14.254Z,31.31
2018-07-03T09:07:26.673Z,31.28
2018-07-03T09:09:39.033Z,31.22
2018-07-03T09:11:51.582Z,31.13
2018-07-03T09:14:04.285Z,31.13
2018-07-03T09:16:17.449Z,31.02
2018-07-03T09:18:29.860Z,31.04
2018-07-03T09:20:42.284Z,31.10
2018-07-03T09:22:54.726Z,31.12
2018-07-03T09:25:07.235Z,31.26
2018-07-03T09:27:19.643Z,31.43
2018-07-03T09:29:31.990Z,31.34
2018-07-03T09:31:44.362Z,31.40
2018-07-03T09:33:56.795Z,31.54
2018-07-03T09:36:11.074Z,31.68
2018-07-03T09:38:23.610Z,31.66
2018-07-03T09:40:36.253Z,31.47
2018-07-03T09:42:48.841Z,31.52
2018-07-03T09:45:01.427Z,31.48
2018-07-03T09:47:13.946Z,31.42
2018-07-03T09:49:26.326Z,31.56
2018-07-03T09:51:38.710Z,31.79
2018-07-03T09:53:51.154Z,32.00
2018-07-03T09:56:03.578Z,32.08
2018-07-03T09:58:15.934Z,32.29
2018-07-03T10:00:33.859Z,32.44
2018-07-03T10:02:46.444Z,32.49
2018-07-03T10:04:58.805Z,32.54
2018-07-03T10:07:11.286Z,32.48
2018-07-03T10:09:23.710Z,32.24
2018-07-03T10:11:36.094Z,32.09
2018-07-03T10:13:48.582Z,32.18
2018-07-03T10:16:01.025Z,32.25
2018-07-03T10:18:13.698Z,32.45
2018-07-03T10:20:26.174Z,32.58
2018-07-03T10:22:38.524Z,32.70
2018-07-03T10:24:50.936Z,32.82
2018-07-03T10:27:03.344Z,32.97
2018-07-03T10:29:15.701Z,33.03
2018-07-03T10:31:28.126Z,33.00
2018-07-03T10:33:40.656Z,32.79
2018-07-03T10:35:53.099Z,32.49
2018-07-03T10:38:05.838Z,31.69
2018-07-03T10:40:18.474Z,31.63
2018-07-03T10:42:30.891Z,31.75
2018-07-03T10:44:43.286Z,31.87
2018-07-03T10:46:55.701Z,31.83
2018-07-03T10:49:08.069Z,31.77
2018-07-03T10:51:20.539Z,31.78
2018-07-03T10:53:32.925Z,31.75
2018-07-03T10:55:48.383Z,31.88
2018-07-03T10:58:04.598Z,31.97
2018-07-03T11:00:18.007Z,32.20
2018-07-03T11:02:30.386Z,32.27
2018-07-03T11:04:42.801Z,32.44
2018-07-03T11:06:55.356Z,32.60
2018-07-03T11:09:09.734Z,32.50
2018-07-03T11:11:22.103Z,32.33
2018-07-03T11:13:34.494Z,32.22
2018-07-03T11:15:52.911Z,32.06
2018-07-03T11:18:05.342Z,32.14
2018-07-03T11:20:17.890Z,32.19
2018-07-03T11:22:30.186Z,32.29
2018-07-03T11:24:42.574Z,32.22
2018-07-03T11:26:55.192Z,32.31
2018-07-03T11:29:08.030Z,32.39
2018-07-03T11:31:20.392Z,32.33
2018-07-03T11:33:32.789Z,32.30
2018-07-03T11:35:45.181Z,32.25
2018-07-03T11:37:58.221Z,32.27
2018-07-03T11:40:10.602Z,32.17
2018-07-03T11:42:23.002Z,32.14
2018-07-03T11:44:35.375Z,31.91
2018-07-03T11:46:47.765Z,31.72
2018-07-03T11:49:00.280Z,31.65
2018-07-03T11:51:13.470Z,31.67
2018-07-03T11:53:29.804Z,31.78
2018-07-03T11:55:43.023Z,31.93
2018-07-03T11:57:55.393Z,32.03
2018-07-03T12:00:07.915Z,32.17
2018-07-03T12:02:20.303Z,31.96
2018-07-03T12:04:32.766Z,31.81
2018-07-03T12:06:45.128Z,31.68
2018-07-03T12:08:57.498Z,31.72
2018-07-03T12:11:10.078Z,31.81
2018-07-03T12:13:23.285Z,31.85
2018-07-03T12:15:37.717Z,31.82
2018-07-03T12:17:50.141Z,31.69
2018-07-03T12:20:02.764Z,31.64
2018-07-03T12:22:15.194Z,31.33
2018-07-03T12:24:27.774Z,31.26
2018-07-03T12:26:40.378Z,31.00
2018-07-03T12:28:52.827Z,30.74
2018-07-03T12:31:05.418Z,30.52
2018-07-03T12:33:17.805Z,30.52
2018-07-03T12:35:30.234Z,30.49
2018-07-03T12:37:42.562Z,30.51
2018-07-03T12:39:54.915Z,30.48
2018-07-03T12:42:07.410Z,30.36
2018-07-03T12:44:19.767Z,30.33
2018-07-03T12:46:33.833Z,30.39
2018-07-03T12:48:46.293Z,30.46
2018-07-03T12:50:58.647Z,30.51
2018-07-03T12:53:10.949Z,30.46
2018-07-03T12:55:23.376Z,30.47
2018-07-03T12:57:35.754Z,30.45
2018-07-03T12:59:48.070Z,30.42
2018-07-03T13:02:00.524Z,30.39
2018-07-03T13:04:12.925Z,30.34
2018-07-03T13:06:25.307Z,30.28
2018-07-03T13:08:37.634Z,30.35
2018-07-03T13:10:50.226Z,30.52
2018-07-03T13:13:02.616Z,30.68
2018-07-03T13:15:15.129Z,30.69
2018-07-03T13:17:27.502Z,30.51
2018-07-03T13:19:39.893Z,30.32
2018-07-03T13:21:52.259Z,30.30
2018-07-03T13:24:04.834Z,30.30
2018-07-03T13:26:17.219Z,30.40
2018-07-03T13:28:29.618Z,30.42
2018-07-03T13:30:42.046Z,30.49
2018-07-03T13:32:54.441Z,30.49
2018-07-03T13:35:08.090Z,30.51
2018-07-03T13:37:20.638Z,30.36
2018-07-03T13:39:33.046Z,30.37
2018-07-03T13:41:45.546Z,30.40
2018-07-03T13:43:57.917Z,30.35
2018-07-03T13:46:10.293Z,30.20
2018-07-03T13:48:24.307Z,30.27
2018-07-03T13:50:36.698Z,30.25
2018-07-03T13:52:49.066Z,30.27
2018-07-03T13:55:01.567Z,30.31
2018-07-03T13:57:13.899Z,30.35
2018-07-03T13:59:26.386Z,30.35
2018-07-03T14:01:38.778Z,30.33
2018-07-03T14:03:51.289Z,30.29
2018-07-03T14:06:03.677Z,30.33
2018-07-03T14:08:16.022Z,30.21
2018-07-03T14:10:29.358Z,30.16
2018-07-03T14:12:41.745Z,30.09
2018-07-03T14:14:54.129Z,29.99
2018-07-03T14:17:06.568Z,29.87
2018-07-03T14:19:18.885Z,29.77
2018-07-03T14:21:31.307Z,29.71
2018-07-03T14:23:44.494Z,29.53
2018-07-03T14:25:57.257Z,29.33
2018-07-03T14:28:12.475Z,29.28
2018-07-03T14:30:24.870Z,29.34
2018-07-03T14:32:37.305Z,29.36
2018-07-03T14:34:49.887Z,29.33
2018-07-03T14:37:02.248Z,29.30
2018-07-03T14:39:14.802Z,29.35
2018-07-03T14:41:27.143Z,29.40
2018-07-03T14:43:39.819Z,29.39
2018-07-03T14:45:52.366Z,29.32
2018-07-03T14:48:05.289Z,29.32
2018-07-03T14:50:17.653Z,29.38
2018-07-03T14:52:31.891Z,29.35
2018-07-03T14:54:48.142Z,29.35
2018-07-03T14:57:00.755Z,29.35
2018-07-03T14:59:13.189Z,29.37
2018-07-03T15:01:25.587Z,29.26
2018-07-03T15:03:37.946Z,29.28
2018-07-03T15:05:50.395Z,29.23
2018-07-03T15:08:02.739Z,29.23
2018-07-03T15:10:15.189Z,29.29
2018-07-03T15:12:27.647Z,29.32
2018-07-03T15:14:40.046Z,29.34
2018-07-03T15:16:52.586Z,29.36
2018-07-03T15:19:13.239Z,29.44
2018-07-03T15:21:26.721Z,29.52
2018-07-03T15:23:39.076Z,29.54
2018-07-03T15:25:51.555Z,29.58
2018-07-03T15:28:03.898Z,29.64
2018-07-03T15:30:18.157Z,29.68
2018-07-03T15:32:30.570Z,29.74
2018-07-03T15:34:43.161Z,29.75
2018-07-03T15:36:55.467Z,29.83
2018-07-03T15:39:10.522Z,29.80
2018-07-03T15:41:22.977Z,29.86
2018-07-03T15:43:35.335Z,29.88
2018-07-03T15:45:47.727Z,29.78
2018-07-03T15:48:00.224Z,29.76
2018-07-03T15:50:13.420Z,29.81
2018-07-03T15:52:25.886Z,29.81
2018-07-03T15:54:38.290Z,29.76
2018-07-03T15:56:50.815Z,29.79
2018-07-03T15:59:03.262Z,29.81
2018-07-03T16:01:15.730Z,29.72
2018-07-03T16:05:41.862Z,29.76
2018-07-03T16:09:05.226Z,29.79
2018-07-03T16:11:17.794Z,29.74
2018-07-03T16:13:30.174Z,29.71
2018-07-03T16:15:42.510Z,29.70
2018-07-03T16:17:54.925Z,29.65
2018-07-03T16:20:15.798Z,29.48
2018-07-03T16:22:28.226Z,29.44
2018-07-03T16:24:40.590Z,29.54
2018-07-03T16:26:53.006Z,29.51
2018-07-03T16:29:07.663Z,29.50
2018-07-03T16:31:20.006Z,29.46
2018-07-03T16:33:32.441Z,29.40
2018-07-03T16:35:44.778Z,29.39
2018-07-03T16:37:57.239Z,29.48
2018-07-03T16:40:09.605Z,29.44
2018-07-03T16:42:21.982Z,29.51
2018-07-03T16:44:34.348Z,29.48
2018-07-03T16:46:46.858Z,29.50
2018-07-03T16:48:59.246Z,29.49
2018-07-03T16:51:11.907Z,29.52
2018-07-03T16:53:24.252Z,29.46
2018-07-03T16:55:36.690Z,29.45
2018-07-03T16:57:49.122Z,29.44
2018-07-03T17:00:01.478Z,29.42
2018-07-03T17:02:13.882Z,29.43
2018-07-03T17:04:26.408Z,29.42
2018-07-03T17:06:38.879Z,29.35
2018-07-03T17:08:51.370Z,29.38
2018-07-03T17:11:03.842Z,29.35
2018-07-03T17:13:17.050Z,29.38
2018-07-03T17:15:29.414Z,29.40
2018-07-03T17:17:41.766Z,29.38
2018-07-03T17:19:54.150Z,29.27
2018-07-03T17:22:06.961Z,29.29
2018-07-03T17:24:19.410Z,29.27
2018-07-03T17:26:31.816Z,29.20
2018-07-03T17:28:44.165Z,29.21
2018-07-03T17:30:56.766Z,29.21
2018-07-03T17:33:09.486Z,29.21
2018-07-03T17:35:21.795Z,29.14
2018-07-03T17:37:34.163Z,29.07
2018-07-03T17:39:57.865Z,29.01
2018-07-03T17:42:21.506Z,28.96
2018-07-03T17:44:50.637Z,28.87
2018-07-03T17:47:03.281Z,28.88
2018-07-03T17:49:15.721Z,28.87
2018-07-03T17:51:28.214Z,28.85
2018-07-03T17:53:40.627Z,28.85
2018-07-03T17:55:53.093Z,28.83
2018-07-03T17:58:06.263Z,28.78
2018-07-03T18:00:18.719Z,28.73
2018-07-03T18:02:31.079Z,28.66
2018-07-03T18:04:43.429Z,28.62
2018-07-03T18:06:55.822Z,28.54
2018-07-03T18:09:09.837Z,28.46
2018-07-03T18:11:22.253Z,28.43
2018-07-03T18:13:34.642Z,28.44
2018-07-03T18:15:47.022Z,28.35
2018-07-03T18:17:59.378Z,28.33
2018-07-03T18:20:11.871Z,28.30
2018-07-03T18:22:24.293Z,28.26
2018-07-03T18:24:36.685Z,28.23
2018-07-03T18:26:49.047Z,28.16
2018-07-03T18:29:01.598Z,28.10
2018-07-03T18:31:13.978Z,28.03
2018-07-03T18:33:26.390Z,27.96
2018-07-03T18:35:38.732Z,27.94
2018-07-03T18:37:51.072Z,27.89
2018-07-03T18:40:04.022Z,27.86
2018-07-03T18:42:16.657Z,27.85
2018-07-03T18:44:29.934Z,27.83
2018-07-03T18:46:42.278Z,27.84
2018-07-03T18:48:54.661Z,27.77
2018-07-03T18:51:07.127Z,27.57
2018-07-03T18:53:19.553Z,27.36
2018-07-03T18:55:31.943Z,27.11
2018-07-03T18:57:44.454Z,26.98
2018-07-03T18:59:57.258Z,26.79
2018-07-03T19:02:09.719Z,26.66
2018-07-03T19:04:22.111Z,26.60
2018-07-03T19:06:34.486Z,26.56
2018-07-03T19:08:46.879Z,26.51
2018-07-03T19:10:59.334Z,26.43
2018-07-03T19:13:11.766Z,26.31
2018-07-03T19:15:24.128Z,26.17
2018-07-03T19:17:36.565Z,26.04
2018-07-03T19:19:49.022Z,25.85
2018-07-03T19:22:01.484Z,25.69
2018-07-03T19:24:13.845Z,25.49
2018-07-03T19:26:26.481Z,25.39
2018-07-03T19:28:38.874Z,25.34
2018-07-03T19:30:51.270Z,25.31
2018-07-03T19:33:03.597Z,25.25
2018-07-03T19:35:15.998Z,25.21
2018-07-03T19:37:28.374Z,25.21
2018-07-03T19:39:40.799Z,25.17
2018-07-03T19:41:53.118Z,25.05
2018-07-03T19:44:05.581Z,25.00
2018-07-03T19:46:17.901Z,24.87
2018-07-03T19:48:30.369Z,24.78
2018-07-03T19:50:42.727Z,24.66
2018-07-03T19:52:55.191Z,24.60
2018-07-03T19:55:07.586Z,24.57
2018-07-03T19:57:19.985Z,24.49
2018-07-03T19:59:32.373Z,24.46
2018-07-03T20:01:44.765Z,24.44
2018-07-03T20:03:57.163Z,24.42
2018-07-03T20:06:09.533Z,24.36
2018-07-03T20:08:22.014Z,24.32
2018-07-03T20:10:35.309Z,24.29
2018-07-03T20:12:47.683Z,24.23
2018-07-03T20:15:00.081Z,24.20
2018-07-03T20:17:12.445Z,24.09
2018-07-03T20:19:24.847Z,24.09
2018-07-03T20:21:37.324Z,24.00
2018-07-03T20:23:49.716Z,23.88
2018-07-03T20:26:02.187Z,23.77
2018-07-03T20:28:14.531Z,23.74
2018-07-03T20:30:26.912Z,23.71
2018-07-03T20:32:39.311Z,23.67
2018-07-03T20:34:51.637Z,23.65
2018-07-03T20:37:04.011Z,23.56
2018-07-03T20:39:16.397Z,23.50
2018-07-03T20:41:28.807Z,23.52
2018-07-03T20:43:41.826Z,23.49
2018-07-03T20:45:54.305Z,23.43
2018-07-03T20:48:06.671Z,23.41
2018-07-03T20:50:19.300Z,23.37
2018-07-03T20:52:31.686Z,23.31
2018-07-03T20:54:44.014Z,23.30
2018-07-03T20:56:56.431Z,23.26
2018-07-03T20:59:08.863Z,23.18
2018-07-03T21:01:21.314Z,23.14
2018-07-03T21:03:33.692Z,23.08
2018-07-03T21:05:46.136Z,23.00
2018-07-03T21:07:58.456Z,22.93
2018-07-03T21:10:10.825Z,22.83
2018-07-03T21:12:23.246Z,22.81
2018-07-03T21:14:35.685Z,22.77
2018-07-03T21:16:48.048Z,22.74
2018-07-03T21:19:00.347Z,22.62
2018-07-03T21:21:12.731Z,22.54
2018-07-03T21:23:25.057Z,22.40
2018-07-03T21:25:37.417Z,22.33
2018-07-03T21:27:49.789Z,22.25
2018-07-03T21:30:02.238Z,22.15
2018-07-03T21:32:14.606Z,22.09
2018-07-03T21:34:26.916Z,22.04
2018-07-03T21:36:39.308Z,22.04
2018-07-03T21:38:51.721Z,21.97
2018-07-03T21:41:04.134Z,21.90
2018-07-03T21:43:16.498Z,21.83
2018-07-03T21:45:28.810Z,21.74
2018-07-03T21:47:41.162Z,21.73
2018-07-03T21:49:53.488Z,21.70
2018-07-03T21:52:05.889Z,21.67
2018-07-03T21:54:18.443Z,21.68
2018-07-03T21:56:30.817Z,21.69
2018-07-03T21:58:43.117Z,21.69
2018-07-03T22:00:55.563Z,21.66
2018-07-03T22:03:09.248Z,21.63
2018-07-03T22:05:21.585Z,21.67
2018-07-03T22:07:34.227Z,21.71
2018-07-03T22:09:46.613Z,21.71
2018-07-03T22:11:59.074Z,21.69
2018-07-03T22:14:11.509Z,21.62
2018-07-03T22:16:23.810Z,21.57
2018-07-03T22:18:36.290Z,21.53
2018-07-03T22:20:48.736Z,21.41
2018-07-03T22:23:01.074Z,21.42
2018-07-03T22:25:13.366Z,21.32
2018-07-03T22:27:25.742Z,21.32
2018-07-03T22:29:38.050Z,21.39
2018-07-03T22:31:50.397Z,21.34
2018-07-03T22:34:02.690Z,21.33
2018-07-03T22:36:14.977Z,21.35
2018-07-03T22:38:27.329Z,21.41
2018-07-03T22:40:39.845Z,21.49
2018-07-03T22:42:52.146Z,21.50
2018-07-03T22:45:04.702Z,21.48
2018-07-03T22:47:17.026Z,21.40
2018-07-03T22:49:29.378Z,21.31
2018-07-03T22:51:41.713Z,21.24
2018-07-03T22:53:54.185Z,21.26
2018-07-03T22:56:06.513Z,21.25
2018-07-03T22:58:18.987Z,21.21
2018-07-03T23:00:31.406Z,21.15
2018-07-03T23:02:43.718Z,21.07
2018-07-03T23:04:56.321Z,21.06
2018-07-03T23:07:08.707Z,21.09
2018-07-03T23:09:21.026Z,20.98
2018-07-03T23:11:33.401Z,20.88
2018-07-03T23:13:45.812Z,20.86
2018-07-03T23:15:58.293Z,20.87
2018-07-03T23:18:10.609Z,20.87
2018-07-03T23:20:22.909Z,20.88
2018-07-03T23:22:35.270Z,20.86
2018-07-03T23:24:47.541Z,20.83
2018-07-03T23:26:59.874Z,20.80
2018-07-03T23:29:12.245Z,20.85
2018-07-03T23:31:24.674Z,20.86
2018-07-03T23:33:37.042Z,20.91
2018-07-03T23:35:49.365Z,20.95
2018-07-03T23:38:01.686Z,20.94
2018-07-03T23:40:14.129Z,20.94
2018-07-03T23:42:26.534Z,20.94
2018-07-03T23:44:38.866Z,20.95
2018-07-03T23:47:02.590Z,20.92
2018-07-03T23:49:26.414Z,20.92
2018-07-03T23:51:50.117Z,20.90
2018-07-03T23:54:13.847Z,20.92
2018-07-03T23:56:38.737Z,20.90
2018-07-03T23:59:03.861Z,20.88
